Time;durP1;ratioP1;P1;durP2;ratioP2;P2;SDS_P1;SDS_P2;PMS_P1;PMS_P2;Temp;Humidity;BMP_temperature;BMP_pressure;BME280_temperature;BME280_humidity;BME280_pressure;Samples;Min_cycle;Max_cycle;Signal;HPM_P1;HPM_P2
2024/01/29 00:02:23;;;;;;;8.73;6.25;;;;;;;;;;4957513;28;25096;-64
2024/01/29 00:04:49;;;;;;;11.32;6.40;;;;;;;;;;4963866;28;25158;-64
2024/01/29 00:07:15;;;;;;;10.77;6.00;;;;;;;;;;4963142;28;25121;-66
2024/01/29 00:09:41;;;;;;;9.27;6.38;;;;;;;;;;4965438;28;25074;-65
2024/01/29 00:12:07;;;;;;;9.95;6.05;;;;;;;;;;4971634;28;25121;-65
2024/01/29 00:14:33;;;;;;;10.27;6.68;;;;;;;;;;4965392;28;25073;-66
2024/01/29 00:17:00;;;;;;;12.38;6.53;;;;;;;;;;4981229;28;25144;-65
2024/01/29 00:19:26;;;;;;;10.55;6.95;;;;;;;;;;4958312;28;25073;-65
2024/01/29 00:21:52;;;;;;;10.80;6.57;;;;;;;;;;4945231;28;25090;-66
2024/01/29 00:24:18;;;;;;;12.02;6.00;;;;;;;;;;4950437;28;25071;-65
2024/01/29 00:26:44;;;;;;;10.77;6.47;;;;;;;;;;4948948;28;25082;-65
2024/01/29 00:29:10;;;;;;;9.30;6.65;;;;;;;;;;4949153;28;25129;-65
2024/01/29 00:31:36;;;;;;;10.32;6.72;;;;;;;;;;4947911;28;25098;-65
2024/01/29 00:34:02;;;;;;;14.25;6.63;;;;;;;;;;4965247;28;25152;-66
2024/01/29 00:36:28;;;;;;;9.70;6.43;;;;;;;;;;4952630;28;25136;-64
2024/01/29 00:38:54;;;;;;;10.75;6.70;;;;;;;;;;4967239;28;25129;-65
2024/01/29 00:41:20;;;;;;;11.65;6.40;;;;;;;;;;4976523;28;25132;-65
2024/01/29 00:43:46;;;;;;;12.50;7.03;;;;;;;;;;4968231;28;25082;-66
2024/01/29 00:46:13;;;;;;;10.35;6.50;;;;;;;;;;4969549;28;25061;-64
2024/01/29 00:48:39;;;;;;;12.70;6.78;;;;;;;;;;4968575;28;25147;-67
2024/01/29 00:51:05;;;;;;;8.80;6.32;;;;;;;;;;4967495;28;25065;-66
2024/01/29 00:53:31;;;;;;;13.10;6.78;;;;;;;;;;4968748;28;25061;-65
2024/01/29 00:55:58;;;;;;;13.48;7.40;;;;;;;;;;4966925;28;25102;-66
2024/01/29 00:58:24;;;;;;;11.20;6.82;;;;;;;;;;4987853;28;25085;-66
2024/01/29 01:00:50;;;;;;;10.38;6.60;;;;;;;;;;4968254;28;25122;-64
2024/01/29 01:03:16;;;;;;;12.88;7.07;;;;;;;;;;4969758;28;25073;-65
2024/01/29 01:05:42;;;;;;;10.00;6.93;;;;;;;;;;4972936;28;25071;-65
2024/01/29 01:08:08;;;;;;;9.48;6.68;;;;;;;;;;4969121;28;25137;-66
2024/01/29 01:10:34;;;;;;;13.27;7.00;;;;;;;;;;4966481;28;25065;-66
2024/01/29 01:13:00;;;;;;;14.82;6.45;;;;;;;;;;4968057;28;25062;-65
2024/01/29 01:15:26;;;;;;;12.93;7.28;;;;;;;;;;4965665;28;25152;-64
2024/01/29 01:17:52;;;;;;;14.20;7.25;;;;;;;;;;4966356;28;25061;-65
2024/01/29 01:20:18;;;;;;;10.90;6.97;;;;;;;;;;4966811;28;25094;-65
2024/01/29 01:22:44;;;;;;;11.60;6.75;;;;;;;;;;4967460;28;25054;-65
2024/01/29 01:25:11;;;;;;;10.70;6.25;;;;;;;;;;4966506;28;25070;-65
2024/01/29 01:27:37;;;;;;;10.55;7.05;;;;;;;;;;4972755;28;25085;-66
2024/01/29 01:30:03;;;;;;;12.25;7.18;;;;;;;;;;4967249;28;25095;-67
2024/01/29 01:32:29;;;;;;;10.73;6.80;;;;;;;;;;4967722;28;25080;-63
2024/01/29 01:34:55;;;;;;;9.85;6.75;;;;;;;;;;4971598;28;25070;-65
2024/01/29 01:37:21;;;;;;;14.43;7.88;;;;;;;;;;4986271;28;25148;-65
2024/01/29 01:39:52;;;;;;;11.40;6.43;;;;;;;;;;4966173;28;25093;-66
2024/01/29 01:42:18;;;;;;;13.35;7.78;;;;;;;;;;4968785;28;25050;-66
2024/01/29 01:44:45;;;;;;;11.93;7.18;;;;;;;;;;4987380;28;25059;-66
2024/01/29 01:47:12;;;;;;;10.70;7.07;;;;;;;;;;4971489;28;25066;-66
2024/01/29 01:49:38;;;;;;;9.68;6.63;;;;;;;;;;4970049;28;25119;-65
2024/01/29 01:52:04;;;;;;;9.93;7.20;;;;;;;;;;4967475;28;25060;-64
2024/01/29 01:54:31;;;;;;;9.20;6.90;;;;;;;;;;4967144;28;25079;-64
2024/01/29 01:56:57;;;;;;;9.52;7.35;;;;;;;;;;4966475;28;25066;-65
2024/01/29 01:59:25;;;;;;;12.48;7.97;;;;;;;;;;4970813;28;25146;-65
2024/01/29 02:01:51;;;;;;;11.40;7.47;;;;;;;;;;4968156;28;25153;-66
2024/01/29 02:04:17;;;;;;;10.07;6.93;;;;;;;;;;4967285;28;25145;-66
2024/01/29 02:06:43;;;;;;;11.25;6.95;;;;;;;;;;4971600;28;25072;-65
2024/01/29 02:09:09;;;;;;;12.40;6.78;;;;;;;;;;4978168;28;25064;-63
2024/01/29 02:11:35;;;;;;;10.18;7.35;;;;;;;;;;4976284;28;25074;-66
2024/01/29 02:14:02;;;;;;;9.98;6.72;;;;;;;;;;4972595;28;25060;-64
2024/01/29 02:16:27;;;;;;;11.80;7.63;;;;;;;;;;4970583;28;25076;-66
2024/01/29 02:18:53;;;;;;;26.25;8.10;;;;;;;;;;4965519;28;25134;-65
2024/01/29 02:21:19;;;;;;;13.38;7.28;;;;;;;;;;4966977;28;25073;-65
2024/01/29 02:23:46;;;;;;;10.80;7.25;;;;;;;;;;4970203;28;25108;-65
2024/01/29 02:26:12;;;;;;;10.23;7.65;;;;;;;;;;4965834;28;25083;-65
2024/01/29 02:28:38;;;;;;;11.27;7.35;;;;;;;;;;4969177;28;25077;-65
2024/01/29 02:31:04;;;;;;;14.82;9.15;;;;;;;;;;4971153;28;25054;-66
2024/01/29 02:33:30;;;;;;;9.75;7.18;;;;;;;;;;4964436;28;25074;-66
2024/01/29 02:35:56;;;;;;;15.25;9.60;;;;;;;;;;4949832;28;25079;-66
2024/01/29 02:38:22;;;;;;;11.73;7.53;;;;;;;;;;4953287;28;25070;-65
2024/01/29 02:40:48;;;;;;;10.98;7.47;;;;;;;;;;4947217;28;25048;-65
2024/01/29 02:43:15;;;;;;;10.65;7.68;;;;;;;;;;4947320;28;25067;-66
2024/01/29 02:45:41;;;;;;;11.98;7.95;;;;;;;;;;4947037;28;25063;-65
2024/01/29 02:48:07;;;;;;;12.40;8.13;;;;;;;;;;4959848;28;25129;-66
2024/01/29 02:50:33;;;;;;;10.45;7.55;;;;;;;;;;4964790;28;25132;-65
2024/01/29 02:52:59;;;;;;;9.63;7.82;;;;;;;;;;4967182;28;25098;-65
2024/01/29 02:55:25;;;;;;;11.95;7.30;;;;;;;;;;4966715;28;25066;-64
2024/01/29 02:57:51;;;;;;;13.07;8.00;;;;;;;;;;4968866;28;25075;-66
2024/01/29 03:00:17;;;;;;;11.27;8.43;;;;;;;;;;4966853;28;25077;-64
2024/01/29 03:02:43;;;;;;;14.95;8.82;;;;;;;;;;4984831;28;25091;-65
2024/01/29 03:05:09;;;;;;;11.10;8.00;;;;;;;;;;4965837;28;25093;-65
2024/01/29 03:07:35;;;;;;;12.30;8.48;;;;;;;;;;4967061;28;25085;-66
2024/01/29 03:10:01;;;;;;;9.98;7.57;;;;;;;;;;4964069;28;25171;-65
2024/01/29 03:12:27;;;;;;;12.57;8.43;;;;;;;;;;4986318;28;25151;-65
2024/01/29 03:14:53;;;;;;;12.05;8.13;;;;;;;;;;4981253;28;25131;-65
2024/01/29 03:17:19;;;;;;;11.95;7.90;;;;;;;;;;4965195;28;25064;-65
2024/01/29 03:19:45;;;;;;;13.57;8.57;;;;;;;;;;4967290;28;25076;-65
2024/01/29 03:22:11;;;;;;;10.38;8.15;;;;;;;;;;4968841;28;25088;-64
2024/01/29 03:24:37;;;;;;;12.15;8.25;;;;;;;;;;4967811;28;25078;-65
2024/01/29 03:27:03;;;;;;;13.52;8.90;;;;;;;;;;4966882;28;25067;-65
2024/01/29 03:29:29;;;;;;;12.13;8.25;;;;;;;;;;4964834;28;25144;-65
2024/01/29 03:31:55;;;;;;;11.82;8.80;;;;;;;;;;4967043;28;25090;-65
2024/01/29 03:34:21;;;;;;;11.45;8.57;;;;;;;;;;4966861;28;25154;-66
2024/01/29 03:36:47;;;;;;;13.13;8.48;;;;;;;;;;4966372;28;25067;-65
2024/01/29 03:39:13;;;;;;;13.60;8.63;;;;;;;;;;4965355;28;25067;-65
2024/01/29 03:41:39;;;;;;;12.93;8.93;;;;;;;;;;4965314;28;25060;-65
2024/01/29 03:44:05;;;;;;;12.18;8.98;;;;;;;;;;4961922;28;25060;-65
2024/01/29 03:46:31;;;;;;;12.13;8.48;;;;;;;;;;4959227;28;25060;-65
2024/01/29 03:48:57;;;;;;;13.02;9.25;;;;;;;;;;4947514;28;25087;-65
2024/01/29 03:51:23;;;;;;;11.85;8.77;;;;;;;;;;4966320;28;25079;-65
2024/01/29 03:53:49;;;;;;;12.68;8.00;;;;;;;;;;4963469;28;25061;-65
2024/01/29 03:56:15;;;;;;;11.35;9.25;;;;;;;;;;4965392;28;25116;-64
2024/01/29 03:58:42;;;;;;;13.80;9.52;;;;;;;;;;4966023;28;25092;-65
2024/01/29 04:01:07;;;;;;;15.90;9.27;;;;;;;;;;4969585;28;25066;-64
2024/01/29 04:03:33;;;;;;;13.25;8.70;;;;;;;;;;4971053;28;25068;-66
2024/01/29 04:05:59;;;;;;;13.13;8.93;;;;;;;;;;4967864;28;25072;-65
2024/01/29 04:08:25;;;;;;;12.57;9.07;;;;;;;;;;4968983;28;25055;-65
2024/01/29 04:10:51;;;;;;;13.20;9.02;;;;;;;;;;4968062;28;25079;-65
2024/01/29 04:13:17;;;;;;;10.75;9.10;;;;;;;;;;4965409;28;25071;-68
2024/01/29 04:15:43;;;;;;;12.88;9.82;;;;;;;;;;4945285;28;25123;-65
2024/01/29 04:18:09;;;;;;;11.93;9.75;;;;;;;;;;4969662;28;25101;-65
2024/01/29 04:20:35;;;;;;;12.95;9.52;;;;;;;;;;4969621;28;25065;-65
2024/01/29 04:23:01;;;;;;;12.82;10.35;;;;;;;;;;4970485;28;25087;-65
2024/01/29 04:25:27;;;;;;;15.63;9.55;;;;;;;;;;4975180;28;25085;-66
2024/01/29 04:27:53;;;;;;;15.15;10.38;;;;;;;;;;4970231;28;25067;-64
2024/01/29 04:30:19;;;;;;;12.30;10.10;;;;;;;;;;4976724;28;25060;-66
2024/01/29 04:32:45;;;;;;;11.35;9.65;;;;;;;;;;4974873;28;25069;-64
2024/01/29 04:35:11;;;;;;;10.13;8.57;;;;;;;;;;4971600;28;25105;-65
2024/01/29 04:37:37;;;;;;;11.05;9.20;;;;;;;;;;4968863;28;25056;-65
2024/01/29 04:40:03;;;;;;;16.20;10.15;;;;;;;;;;4966242;28;25063;-65
2024/01/29 04:42:29;;;;;;;14.40;9.70;;;;;;;;;;4947005;28;25050;-65
2024/01/29 04:44:55;;;;;;;15.18;9.88;;;;;;;;;;4962771;28;25091;-65
2024/01/29 04:47:21;;;;;;;16.15;9.63;;;;;;;;;;4964930;28;25068;-66
2024/01/29 04:49:47;;;;;;;11.52;9.48;;;;;;;;;;4968143;28;25071;-65
2024/01/29 04:52:13;;;;;;;14.40;9.75;;;;;;;;;;4966641;28;25069;-64
2024/01/29 04:54:39;;;;;;;15.07;9.60;;;;;;;;;;4974751;28;25050;-66
2024/01/29 04:57:05;;;;;;;15.32;9.75;;;;;;;;;;4968525;28;25083;-65
2024/01/29 04:59:31;;;;;;;13.20;9.82;;;;;;;;;;4971632;28;25099;-65
2024/01/29 05:01:57;;;;;;;15.77;9.82;;;;;;;;;;4969412;28;25176;-66
2024/01/29 05:04:23;;;;;;;10.70;9.57;;;;;;;;;;4970049;28;25075;-65
2024/01/29 05:06:49;;;;;;;17.83;10.35;;;;;;;;;;4966751;28;25111;-66
2024/01/29 05:09:17;;;;;;;11.50;9.75;;;;;;;;;;4963405;28;25119;-65
2024/01/29 05:11:43;;;;;;;13.50;9.63;;;;;;;;;;4970086;28;25169;-65
2024/01/29 05:14:09;;;;;;;14.25;9.27;;;;;;;;;;4968520;28;25072;-66
2024/01/29 05:16:35;;;;;;;13.38;9.15;;;;;;;;;;4969568;28;25064;-64
2024/01/29 05:19:01;;;;;;;10.35;8.75;;;;;;;;;;4965600;28;25061;-64
2024/01/29 05:21:28;;;;;;;11.38;8.70;;;;;;;;;;4970698;28;25091;-65
2024/01/29 05:23:54;;;;;;;11.70;9.45;;;;;;;;;;4967014;28;25099;-64
2024/01/29 05:26:20;;;;;;;12.80;9.25;;;;;;;;;;4969966;28;25093;-65
2024/01/29 05:28:46;;;;;;;10.90;8.73;;;;;;;;;;4967453;28;25082;-65
2024/01/29 05:31:12;;;;;;;14.25;9.90;;;;;;;;;;4988592;28;25062;-64
2024/01/29 05:33:38;;;;;;;13.43;9.63;;;;;;;;;;4945068;28;25104;-65
2024/01/29 05:36:04;;;;;;;13.02;9.88;;;;;;;;;;4963186;28;25058;-65
2024/01/29 05:38:32;;;;;;;14.30;10.00;;;;;;;;;;4968366;28;25115;-65
2024/01/29 05:40:58;;;;;;;14.50;9.80;;;;;;;;;;4969618;28;25055;-66
2024/01/29 05:43:23;;;;;;;13.00;10.18;;;;;;;;;;4968409;28;25068;-66
2024/01/29 05:45:49;;;;;;;16.25;10.35;;;;;;;;;;4962105;28;25058;-65
2024/01/29 05:48:15;;;;;;;16.20;10.65;;;;;;;;;;4962531;28;25062;-66
2024/01/29 05:50:42;;;;;;;15.10;10.88;;;;;;;;;;4961492;28;25073;-64
2024/01/29 05:53:08;;;;;;;12.57;10.05;;;;;;;;;;4956895;28;25121;-65
2024/01/29 05:55:34;;;;;;;14.52;10.18;;;;;;;;;;4960240;28;25063;-67
2024/01/29 05:58:00;;;;;;;14.93;10.20;;;;;;;;;;4949197;28;25067;-65
2024/01/29 06:00:26;;;;;;;14.32;10.57;;;;;;;;;;4949844;28;25101;-64
2024/01/29 06:02:52;;;;;;;15.55;10.18;;;;;;;;;;4962619;28;25129;-64
2024/01/29 06:05:18;;;;;;;14.75;10.55;;;;;;;;;;4958294;28;25147;-65
2024/01/29 06:07:44;;;;;;;12.00;9.50;;;;;;;;;;4966673;28;25140;-64
2024/01/29 06:10:10;;;;;;;15.13;10.00;;;;;;;;;;4966675;28;25077;-64
2024/01/29 06:12:36;;;;;;;13.95;9.90;;;;;;;;;;4967902;28;25051;-65
2024/01/29 06:15:02;;;;;;;13.82;10.27;;;;;;;;;;4971792;28;25164;-68
2024/01/29 06:17:30;;;;;;;20.25;11.32;;;;;;;;;;4963970;28;25072;-66
2024/01/29 06:19:56;;;;;;;16.95;9.63;;;;;;;;;;4962915;28;25048;-65
2024/01/29 06:22:22;;;;;;;13.70;10.70;;;;;;;;;;4963459;28;25131;-64
2024/01/29 06:24:48;;;;;;;14.38;10.63;;;;;;;;;;4962936;28;25158;-65
2024/01/29 06:27:14;;;;;;;16.63;10.38;;;;;;;;;;4966459;28;25136;-65
2024/01/29 06:29:40;;;;;;;16.90;9.68;;;;;;;;;;4966803;28;25114;-65
2024/01/29 06:32:06;;;;;;;15.80;11.30;;;;;;;;;;4966128;28;25076;-65
2024/01/29 06:34:34;;;;;;;15.10;10.70;;;;;;;;;;4971198;28;25075;-65
2024/01/29 06:37:00;;;;;;;16.70;10.40;;;;;;;;;;4966596;28;25070;-65
2024/01/29 06:39:26;;;;;;;19.08;11.27;;;;;;;;;;4967742;28;25084;-66
2024/01/29 06:41:52;;;;;;;17.05;10.60;;;;;;;;;;4966627;28;25067;-65
2024/01/29 06:44:17;;;;;;;12.68;10.23;;;;;;;;;;4967139;28;25134;-63
2024/01/29 06:46:43;;;;;;;17.08;9.98;;;;;;;;;;4966732;28;25074;-64
2024/01/29 06:49:24;;;;;;;15.52;9.88;;;;;;;;;;4983279;28;25060;-66
2024/01/29 06:51:50;;;;;;;17.70;10.88;;;;;;;;;;4986389;28;25099;-64
2024/01/29 06:54:16;;;;;;;16.42;11.18;;;;;;;;;;4977588;28;25063;-64
2024/01/29 06:56:42;;;;;;;13.60;10.23;;;;;;;;;;4978479;28;25069;-63
2024/01/29 06:59:08;;;;;;;18.42;11.18;;;;;;;;;;4998379;28;25097;-66
2024/01/29 07:01:34;;;;;;;18.10;11.40;;;;;;;;;;4969834;28;25063;-64
2024/01/29 07:04:00;;;;;;;17.92;11.35;;;;;;;;;;4968849;28;25087;-64
2024/01/29 07:06:26;;;;;;;16.95;11.57;;;;;;;;;;4966197;28;25114;-66
2024/01/29 07:08:52;;;;;;;18.40;11.63;;;;;;;;;;4964854;28;25098;-65
2024/01/29 07:11:18;;;;;;;16.23;10.52;;;;;;;;;;4966049;28;25068;-65
2024/01/29 07:13:44;;;;;;;14.98;10.52;;;;;;;;;;4966293;28;25131;-68
2024/01/29 07:16:10;;;;;;;29.08;19.80;;;;;;;;;;4965762;28;25141;-65
2024/01/29 07:18:36;;;;;;;18.60;12.98;;;;;;;;;;4970125;28;25072;-68
2024/01/29 07:21:02;;;;;;;17.67;11.85;;;;;;;;;;4966999;28;25138;-66
2024/01/29 07:23:28;;;;;;;15.57;11.13;;;;;;;;;;4989546;28;25075;-65
2024/01/29 07:25:55;;;;;;;18.27;11.70;;;;;;;;;;4965272;28;25142;-66
2024/01/29 07:28:21;;;;;;;20.50;12.10;;;;;;;;;;4965578;28;25079;-65
2024/01/29 07:30:47;;;;;;;16.38;10.90;;;;;;;;;;4965857;28;25157;-64
2024/01/29 07:33:13;;;;;;;22.70;11.77;;;;;;;;;;4965657;28;25124;-65
2024/01/29 07:35:39;;;;;;;17.88;11.00;;;;;;;;;;4966860;28;25069;-65
2024/01/29 07:38:05;;;;;;;17.23;11.57;;;;;;;;;;4968888;28;25074;-65
2024/01/29 07:40:34;;;;;;;21.05;11.98;;;;;;;;;;4971067;28;25061;-65
2024/01/29 07:43:00;;;;;;;14.95;12.00;;;;;;;;;;4972702;28;25054;-66
2024/01/29 07:45:26;;;;;;;21.60;12.20;;;;;;;;;;4969715;28;25072;-65
2024/01/29 07:47:53;;;;;;;18.17;10.32;;;;;;;;;;4955934;28;25126;-65
2024/01/29 07:50:19;;;;;;;18.70;11.23;;;;;;;;;;4961946;28;25073;-65
2024/01/29 07:52:45;;;;;;;17.17;11.23;;;;;;;;;;4978524;28;25078;-64
2024/01/29 07:55:11;;;;;;;17.08;11.63;;;;;;;;;;4968441;28;25031;-64
2024/01/29 07:57:40;;;;;;;18.20;12.00;;;;;;;;;;4973246;28;25064;-64
2024/01/29 08:00:06;;;;;;;18.48;12.07;;;;;;;;;;4954202;28;25156;-66
2024/01/29 08:02:32;;;;;;;19.90;11.75;;;;;;;;;;4950154;28;25123;-64
2024/01/29 08:04:58;;;;;;;16.60;11.68;;;;;;;;;;4949402;28;25055;-66
2024/01/29 08:07:24;;;;;;;17.35;11.32;;;;;;;;;;4970992;28;25072;-64
2024/01/29 08:09:50;;;;;;;24.75;10.45;;;;;;;;;;4967350;28;25079;-64
2024/01/29 08:12:16;;;;;;;17.00;11.77;;;;;;;;;;4969678;28;25112;-65
2024/01/29 08:14:42;;;;;;;25.00;12.52;;;;;;;;;;4972939;28;25072;-65
2024/01/29 08:17:08;;;;;;;20.58;11.77;;;;;;;;;;4971113;28;25047;-64
2024/01/29 08:19:34;;;;;;;15.20;10.88;;;;;;;;;;4970443;28;25055;-65
2024/01/29 08:22:00;;;;;;;15.90;11.75;;;;;;;;;;4973523;28;25133;-65
2024/01/29 08:24:26;;;;;;;15.32;10.30;;;;;;;;;;4970633;28;25059;-66
2024/01/29 08:26:52;;;;;;;13.43;10.40;;;;;;;;;;4969465;28;25064;-65
2024/01/29 08:29:18;;;;;;;15.70;11.32;;;;;;;;;;4968974;28;25118;-65
2024/01/29 08:31:44;;;;;;;17.75;10.43;;;;;;;;;;4968986;28;25115;-66
2024/01/29 08:34:10;;;;;;;16.40;10.82;;;;;;;;;;4970458;28;25155;-66
2024/01/29 08:36:36;;;;;;;16.80;10.77;;;;;;;;;;4970932;28;25131;-64
2024/01/29 08:39:02;;;;;;;15.15;11.27;;;;;;;;;;4969097;28;25052;-65
2024/01/29 08:41:28;;;;;;;13.30;9.70;;;;;;;;;;4969078;28;25088;-65
2024/01/29 08:43:54;;;;;;;16.17;11.40;;;;;;;;;;4968711;28;25090;-65
2024/01/29 08:46:20;;;;;;;15.57;11.57;;;;;;;;;;4962124;28;25041;-65
2024/01/29 08:48:46;;;;;;;18.23;10.32;;;;;;;;;;4949668;28;25065;-65
2024/01/29 08:51:12;;;;;;;17.90;11.70;;;;;;;;;;4967904;28;25077;-66
2024/01/29 08:53:38;;;;;;;14.23;10.77;;;;;;;;;;4959641;28;25151;-65
2024/01/29 08:56:11;;;;;;;14.77;10.68;;;;;;;;;;4959690;28;25143;-65
2024/01/29 08:58:37;;;;;;;21.10;13.05;;;;;;;;;;4966529;28;25082;-66
2024/01/29 09:01:03;;;;;;;16.70;10.82;;;;;;;;;;4974261;28;25074;-67
2024/01/29 09:03:29;;;;;;;15.82;10.65;;;;;;;;;;4973919;28;25051;-66
2024/01/29 09:05:55;;;;;;;15.07;11.35;;;;;;;;;;4968158;28;25102;-65
2024/01/29 09:08:24;;;;;;;14.52;10.55;;;;;;;;;;4965559;28;25151;-65
2024/01/29 09:10:50;;;;;;;16.70;11.85;;;;;;;;;;4973985;28;25115;-64
2024/01/29 09:13:16;;;;;;;14.05;9.80;;;;;;;;;;4999727;28;25109;-67
2024/01/29 09:15:42;;;;;;;15.63;11.18;;;;;;;;;;4991955;28;25077;-65
2024/01/29 09:18:08;;;;;;;14.60;11.18;;;;;;;;;;4999337;28;25056;-66
2024/01/29 09:20:34;;;;;;;14.43;10.13;;;;;;;;;;5001493;28;25045;-65
2024/01/29 09:23:00;;;;;;;16.33;11.07;;;;;;;;;;4977143;28;25147;-65
2024/01/29 09:25:26;;;;;;;16.17;11.30;;;;;;;;;;4980297;28;25108;-64
2024/01/29 09:27:52;;;;;;;15.63;11.27;;;;;;;;;;4970486;28;25073;-61
2024/01/29 09:30:18;;;;;;;16.27;11.45;;;;;;;;;;4972280;28;25061;-65
2024/01/29 09:32:44;;;;;;;15.82;11.02;;;;;;;;;;4968880;28;25072;-65
2024/01/29 09:35:10;;;;;;;15.52;10.95;;;;;;;;;;4963364;28;25072;-65
2024/01/29 09:37:38;;;;;;;15.75;10.15;;;;;;;;;;4967583;28;25187;-65
2024/01/29 09:40:05;;;;;;;18.65;11.48;;;;;;;;;;4966684;28;25130;-65
2024/01/29 09:42:32;;;;;;;19.20;11.80;;;;;;;;;;4967722;28;25118;-65
2024/01/29 09:44:59;;;;;;;15.13;11.13;;;;;;;;;;4965071;28;25083;-66
2024/01/29 09:47:26;;;;;;;18.20;9.88;;;;;;;;;;4966228;28;25141;-63
2024/01/29 09:49:53;;;;;;;14.95;11.45;;;;;;;;;;4963690;28;25081;-65
2024/01/29 09:52:19;;;;;;;16.88;11.43;;;;;;;;;;4989622;28;25122;-64
2024/01/29 09:54:47;;;;;;;17.02;11.60;;;;;;;;;;4966657;28;25106;-65
2024/01/29 09:57:14;;;;;;;19.85;12.60;;;;;;;;;;4966940;28;25112;-65
2024/01/29 09:59:40;;;;;;;16.60;11.35;;;;;;;;;;4968835;28;25171;-64
2024/01/29 10:02:07;;;;;;;17.90;11.70;;;;;;;;;;4966306;28;25075;-66
2024/01/29 10:04:33;;;;;;;15.43;11.80;;;;;;;;;;4962730;28;25093;-67
2024/01/29 10:07:00;;;;;;;19.23;11.48;;;;;;;;;;4966127;28;25092;-65
2024/01/29 10:09:26;;;;;;;18.67;11.77;;;;;;;;;;4969857;28;25080;-65
2024/01/29 10:11:52;;;;;;;17.92;12.32;;;;;;;;;;4967391;28;25070;-64
2024/01/29 10:14:18;;;;;;;19.30;12.25;;;;;;;;;;4966535;28;25068;-66
2024/01/29 10:16:44;;;;;;;18.80;11.60;;;;;;;;;;4966055;28;25140;-65
2024/01/29 10:19:12;;;;;;;16.75;11.60;;;;;;;;;;4964978;28;25136;-64
2024/01/29 10:21:39;;;;;;;18.23;12.07;;;;;;;;;;4966336;28;25070;-65
2024/01/29 10:24:05;;;;;;;17.40;11.85;;;;;;;;;;4966267;28;25069;-64
2024/01/29 10:26:31;;;;;;;19.58;12.38;;;;;;;;;;4965519;28;25146;-64
2024/01/29 10:29:05;;;;;;;19.65;12.38;;;;;;;;;;4966408;28;25191;-67
2024/01/29 10:31:31;;;;;;;20.73;12.70;;;;;;;;;;4964297;28;25062;-64
2024/01/29 10:33:57;;;;;;;20.27;13.82;;;;;;;;;;4979922;28;25108;-66
2024/01/29 10:36:24;;;;;;;22.48;13.70;;;;;;;;;;4964425;28;25088;-63
2024/01/29 10:38:50;;;;;;;19.77;12.93;;;;;;;;;;4965147;28;25093;-65
2024/01/29 10:41:17;;;;;;;17.70;12.77;;;;;;;;;;4970151;28;25073;-64
2024/01/29 10:43:46;;;;;;;23.35;13.85;;;;;;;;;;4967553;28;25059;-64
2024/01/29 10:46:13;;;;;;;16.65;12.75;;;;;;;;;;4963185;28;25101;-64
2024/01/29 10:48:39;;;;;;;19.60;12.52;;;;;;;;;;4954772;28;25075;-65
2024/01/29 10:51:06;;;;;;;17.17;12.52;;;;;;;;;;4963845;28;25200;-65
2024/01/29 10:53:33;;;;;;;21.35;12.23;;;;;;;;;;4969298;28;25058;-65
2024/01/29 10:55:59;;;;;;;18.70;12.73;;;;;;;;;;4967674;28;25157;-65
2024/01/29 10:58:25;;;;;;;19.70;12.25;;;;;;;;;;4966379;28;25177;-63
2024/01/29 11:00:52;;;;;;;16.45;12.75;;;;;;;;;;4964895;28;25083;-62
2024/01/29 11:03:21;;;;;;;17.98;11.43;;;;;;;;;;4966240;28;25170;-65
2024/01/29 11:05:51;;;;;;;18.80;11.80;;;;;;;;;;4965113;28;25051;-65
2024/01/29 11:08:24;;;;;;;18.40;12.00;;;;;;;;;;4966580;28;25063;-66
2024/01/29 11:10:50;;;;;;;16.60;11.32;;;;;;;;;;4980645;28;25094;-65
2024/01/29 11:13:18;;;;;;;25.30;12.63;;;;;;;;;;4967766;28;25055;-66
2024/01/29 11:15:44;;;;;;;16.67;11.38;;;;;;;;;;4965794;28;25094;-64
2024/01/29 11:18:11;;;;;;;17.05;11.77;;;;;;;;;;4964722;28;25172;-66
2024/01/29 11:20:40;;;;;;;22.50;12.68;;;;;;;;;;4965711;28;25085;-65
2024/01/29 11:23:06;;;;;;;16.42;11.65;;;;;;;;;;4965202;28;25112;-65
2024/01/29 11:25:32;;;;;;;20.00;12.02;;;;;;;;;;4966014;28;25088;-63
2024/01/29 11:28:00;;;;;;;17.15;11.55;;;;;;;;;;4964348;28;25106;-65
2024/01/29 11:30:28;;;;;;;19.40;13.27;;;;;;;;;;4966006;28;25092;-66
2024/01/29 11:32:55;;;;;;;25.42;14.93;;;;;;;;;;4964548;28;25127;-65
2024/01/29 11:35:22;;;;;;;16.27;12.32;;;;;;;;;;4984875;28;25072;-66
2024/01/29 11:37:49;;;;;;;15.55;11.13;;;;;;;;;;4972482;28;25106;-65
2024/01/29 11:40:34;;;;;;;19.60;10.88;;;;;;;;;;4969576;28;25092;-64
2024/01/29 11:43:11;;;;;;;14.75;11.63;;;;;;;;;;4970726;28;25094;-66
2024/01/29 11:45:37;;;;;;;15.50;10.65;;;;;;;;;;4967369;28;25058;-64
2024/01/29 11:48:08;;;;;;;14.88;11.00;;;;;;;;;;4967703;28;25047;-66
2024/01/29 11:50:34;;;;;;;17.17;11.02;;;;;;;;;;4970205;28;25060;-68
2024/01/29 11:53:00;;;;;;;17.10;11.23;;;;;;;;;;4971429;28;25085;-66
2024/01/29 11:55:26;;;;;;;18.38;10.85;;;;;;;;;;4971947;28;25064;-64
2024/01/29 11:57:53;;;;;;;20.38;11.60;;;;;;;;;;4966514;28;25080;-63
2024/01/29 12:00:19;;;;;;;16.50;11.00;;;;;;;;;;4968094;28;25065;-65
2024/01/29 12:02:48;;;;;;;14.57;10.55;;;;;;;;;;4969311;28;25064;-65
2024/01/29 12:05:14;;;;;;;18.15;12.02;;;;;;;;;;4985760;28;25062;-66
2024/01/29 12:07:40;;;;;;;16.13;11.00;;;;;;;;;;4965956;28;25046;-64
2024/01/29 12:10:06;;;;;;;19.55;12.23;;;;;;;;;;4965589;28;25070;-64
2024/01/29 12:12:32;;;;;;;21.42;13.23;;;;;;;;;;4966835;28;25146;-65
2024/01/29 12:14:58;;;;;;;18.48;11.20;;;;;;;;;;4965330;28;25075;-64
2024/01/29 12:17:24;;;;;;;17.63;10.60;;;;;;;;;;4972295;28;25148;-67
2024/01/29 12:19:51;;;;;;;18.75;11.27;;;;;;;;;;4964567;28;25089;-66
2024/01/29 12:22:17;;;;;;;15.98;11.10;;;;;;;;;;4973566;28;25070;-66
2024/01/29 12:24:43;;;;;;;11.95;10.73;;;;;;;;;;4970369;28;25107;-66
2024/01/29 12:27:09;;;;;;;16.73;10.00;;;;;;;;;;4969306;28;25064;-66
2024/01/29 12:29:39;;;;;;;14.23;10.85;;;;;;;;;;4968957;28;25154;-63
2024/01/29 12:32:11;;;;;;;21.13;11.13;;;;;;;;;;4970654;28;25091;-68
2024/01/29 12:34:48;;;;;;;13.88;11.05;;;;;;;;;;4969225;28;25092;-67
2024/01/29 12:37:21;;;;;;;14.02;10.90;;;;;;;;;;4970631;28;25046;-67
2024/01/29 12:40:05;;;;;;;14.07;10.82;;;;;;;;;;4977082;28;25118;-66
2024/01/29 12:42:33;;;;;;;15.98;11.27;;;;;;;;;;4970310;28;25052;-66
2024/01/29 12:45:08;;;;;;;12.07;10.65;;;;;;;;;;4970039;28;25163;-66
2024/01/29 12:47:34;;;;;;;18.08;11.90;;;;;;;;;;4972467;28;25068;-66
2024/01/29 12:50:00;;;;;;;16.40;11.32;;;;;;;;;;4976555;28;25060;-66
2024/01/29 12:52:28;;;;;;;16.02;10.63;;;;;;;;;;4974401;28;25091;-67
2024/01/29 12:54:57;;;;;;;14.88;10.55;;;;;;;;;;4969655;28;25071;-68
2024/01/29 12:57:23;;;;;;;13.48;10.57;;;;;;;;;;4964722;28;25138;-66
2024/01/29 12:59:49;;;;;;;20.35;11.43;;;;;;;;;;4974748;28;25131;-69
2024/01/29 13:02:16;;;;;;;14.35;10.20;;;;;;;;;;4974540;28;25072;-66
2024/01/29 13:04:44;;;;;;;15.05;11.63;;;;;;;;;;4975164;28;25074;-68
2024/01/29 13:07:10;;;;;;;17.73;10.98;;;;;;;;;;4964021;28;25060;-68
2024/01/29 13:09:38;;;;;;;18.98;12.32;;;;;;;;;;4969711;28;25075;-68
2024/01/29 13:12:04;;;;;;;17.73;11.25;;;;;;;;;;4968298;28;25068;-67
2024/01/29 13:14:30;;;;;;;16.90;11.57;;;;;;;;;;4968090;28;25063;-68
2024/01/29 13:16:56;;;;;;;14.07;12.02;;;;;;;;;;4970945;28;25130;-67
2024/01/29 13:19:22;;;;;;;18.70;11.30;;;;;;;;;;4969036;28;25120;-66
2024/01/29 13:21:48;;;;;;;13.82;9.95;;;;;;;;;;4969104;28;25070;-67
2024/01/29 13:24:14;;;;;;;19.90;11.35;;;;;;;;;;4969974;28;25083;-67
2024/01/29 13:26:40;;;;;;;15.10;10.88;;;;;;;;;;4964636;28;25129;-66
2024/01/29 13:29:07;;;;;;;16.52;11.25;;;;;;;;;;4969321;28;25061;-68
2024/01/29 13:31:33;;;;;;;18.80;11.52;;;;;;;;;;4968836;28;25072;-66
2024/01/29 13:34:00;;;;;;;14.82;11.50;;;;;;;;;;4968832;28;25050;-66
2024/01/29 13:36:27;;;;;;;13.75;11.00;;;;;;;;;;4973571;28;25059;-68
2024/01/29 13:38:53;;;;;;;17.40;12.07;;;;;;;;;;4967773;28;25088;-66
2024/01/29 13:41:19;;;;;;;12.93;10.52;;;;;;;;;;4965215;28;25121;-66
2024/01/29 13:43:45;;;;;;;16.75;12.27;;;;;;;;;;4969532;28;25095;-66
2024/01/29 13:46:18;;;;;;;16.65;12.15;;;;;;;;;;4967738;28;25061;-67
2024/01/29 13:48:44;;;;;;;22.55;11.77;;;;;;;;;;4964399;28;25106;-66
2024/01/29 13:51:18;;;;;;;17.17;11.07;;;;;;;;;;4967626;28;25066;-66
2024/01/29 13:53:44;;;;;;;16.30;10.95;;;;;;;;;;4969865;28;25088;-66
2024/01/29 13:56:10;;;;;;;16.05;12.02;;;;;;;;;;4966665;28;25062;-66
2024/01/29 13:58:35;;;;;;;16.70;11.57;;;;;;;;;;4967995;28;25119;-66
2024/01/29 14:01:01;;;;;;;17.02;12.18;;;;;;;;;;4971571;28;25064;-65
2024/01/29 14:03:27;;;;;;;17.58;12.05;;;;;;;;;;4973150;28;25064;-66
2024/01/29 14:05:53;;;;;;;23.70;13.55;;;;;;;;;;4975033;28;25077;-66
2024/01/29 14:08:19;;;;;;;20.38;11.90;;;;;;;;;;4974489;28;25146;-67
2024/01/29 14:10:45;;;;;;;18.83;11.82;;;;;;;;;;4971605;28;25144;-66
2024/01/29 14:13:15;;;;;;;20.48;11.93;;;;;;;;;;4967658;28;26290;-66
2024/01/29 14:15:41;;;;;;;22.48;14.07;;;;;;;;;;4966745;28;25068;-65
2024/01/29 14:18:07;;;;;;;16.35;11.68;;;;;;;;;;4966568;28;25085;-66
2024/01/29 14:20:33;;;;;;;16.40;11.82;;;;;;;;;;4966481;28;25131;-69